createdAt,value
2023-03-05T00:02:00.528Z,41.90
2023-03-05T00:04:26.992Z,41.86
2023-03-05T00:06:53.643Z,42.07
2023-03-05T00:09:19.990Z,41.94
2023-03-05T00:11:46.565Z,41.80
2023-03-05T00:14:13.533Z,41.71
2023-03-05T00:16:40.366Z,41.84
2023-03-05T00:19:07.471Z,41.82
2023-03-05T00:21:39.431Z,41.65
2023-03-05T00:24:10.525Z,41.64
2023-03-05T00:26:38.933Z,41.90
2023-03-05T00:29:06.915Z,41.69
2023-03-05T00:31:36.463Z,41.85
2023-03-05T00:34:06.900Z,42.22
2023-03-05T00:36:34.142Z,41.91
2023-03-05T00:39:00.879Z,41.96
2023-03-05T00:41:27.655Z,41.89
2023-03-05T00:43:54.090Z,42.02
2023-03-05T00:46:20.814Z,41.84
2023-03-05T00:48:47.355Z,42.14
2023-03-05T00:51:13.775Z,41.99
2023-03-05T00:53:40.162Z,41.90
2023-03-05T00:56:06.902Z,42.38
2023-03-05T00:58:33.284Z,42.41
2023-03-05T01:01:01.598Z,42.28
2023-03-05T01:03:29.112Z,42.40
2023-03-05T01:05:55.857Z,42.03
2023-03-05T01:08:22.607Z,42.00
2023-03-05T01:10:49.108Z,42.51
2023-03-05T01:13:15.590Z,42.65
2023-03-05T01:15:41.950Z,42.88
2023-03-05T01:18:08.499Z,42.52
2023-03-05T01:20:35.344Z,42.76
2023-03-05T01:23:01.829Z,42.70
2023-03-05T01:25:28.838Z,42.75
2023-03-05T01:27:56.308Z,42.64
2023-03-05T01:30:22.816Z,43.00
2023-03-05T01:32:49.395Z,42.99
2023-03-05T01:35:21.650Z,43.43
2023-03-05T01:37:48.448Z,43.15
2023-03-05T01:40:17.983Z,43.43
2023-03-05T01:42:49.949Z,43.40
2023-03-05T01:45:18.286Z,43.28
2023-03-05T01:47:45.348Z,43.18
2023-03-05T01:50:18.187Z,43.62
2023-03-05T01:52:53.427Z,44.02
2023-03-05T01:55:25.332Z,44.26
2023-03-05T01:58:04.863Z,44.30
2023-03-05T02:00:35.173Z,44.28
2023-03-05T02:03:05.852Z,44.24
2023-03-05T02:05:35.265Z,44.16
2023-03-05T02:08:05.438Z,44.36
2023-03-05T02:10:43.189Z,44.77
2023-03-05T02:13:14.844Z,44.41
2023-03-05T02:15:41.820Z,44.39
2023-03-05T02:18:09.415Z,44.36
2023-03-05T02:20:52.048Z,44.96
2023-03-05T02:23:20.037Z,44.55
2023-03-05T02:25:46.834Z,44.44
2023-03-05T02:28:23.165Z,45.16
2023-03-05T02:30:49.927Z,44.47
2023-03-05T02:33:18.128Z,44.70
2023-03-05T02:35:46.224Z,44.32
2023-03-05T02:38:18.199Z,44.93
2023-03-05T02:40:44.785Z,44.67
2023-03-05T02:43:11.970Z,44.71
2023-03-05T02:45:39.632Z,44.74
2023-03-05T02:48:06.333Z,44.92
2023-03-05T02:50:33.902Z,44.95
2023-03-05T02:53:00.569Z,44.95
2023-03-05T02:55:27.156Z,44.53
2023-03-05T02:57:53.632Z,44.95
2023-03-05T03:00:20.251Z,45.02
2023-03-05T03:02:46.617Z,45.00
2023-03-05T03:05:13.012Z,45.08
2023-03-05T03:07:39.461Z,45.29
2023-03-05T03:10:06.685Z,44.98
2023-03-05T03:12:38.451Z,45.48
2023-03-05T03:15:06.163Z,45.50
2023-03-05T03:17:35.336Z,45.22
2023-03-05T03:20:03.302Z,45.23
2023-03-05T03:22:29.920Z,45.18
2023-03-05T03:24:56.477Z,45.17
2023-03-05T03:27:23.510Z,45.00
2023-03-05T03:29:49.826Z,45.38
2023-03-05T03:32:16.364Z,44.95
2023-03-05T03:34:44.516Z,45.28
2023-03-05T03:37:11.422Z,45.05
2023-03-05T03:39:37.733Z,45.32
2023-03-05T03:42:04.340Z,45.42
2023-03-05T03:44:30.846Z,45.42
2023-03-05T03:46:57.184Z,45.23
2023-03-05T03:49:25.901Z,45.56
2023-03-05T03:51:58.095Z,45.21
2023-03-05T03:54:25.096Z,45.42
2023-03-05T03:56:52.474Z,45.61
2023-03-05T03:59:19.112Z,45.26
2023-03-05T04:01:45.777Z,45.53
2023-03-05T04:04:12.901Z,45.62
2023-03-05T04:06:39.367Z,45.27
2023-03-05T04:09:08.345Z,45.63
2023-03-05T04:11:36.487Z,45.35
2023-03-05T04:14:03.934Z,45.82
2023-03-05T04:16:30.527Z,45.60
2023-03-05T04:18:56.850Z,45.58
2023-03-05T04:21:23.329Z,45.44
2023-03-05T04:23:50.225Z,45.60
2023-03-05T04:26:16.676Z,45.64
2023-03-05T04:28:43.098Z,46.05
2023-03-05T04:31:09.728Z,45.97
2023-03-05T04:33:36.099Z,45.89
2023-03-05T04:36:02.743Z,45.62
2023-03-05T04:38:29.122Z,45.92
2023-03-05T04:40:55.460Z,45.87
2023-03-05T04:43:22.231Z,45.74
2023-03-05T04:45:48.808Z,45.71
2023-03-05T04:48:15.408Z,45.82
2023-03-05T04:50:41.975Z,46.29
2023-03-05T04:53:08.478Z,46.40
2023-03-05T04:55:34.849Z,46.37
2023-03-05T04:58:01.452Z,46.26
2023-03-05T05:00:27.839Z,46.29
2023-03-05T05:02:54.289Z,45.96
2023-03-05T05:05:25.779Z,46.48
2023-03-05T05:07:56.760Z,46.26
2023-03-05T05:10:24.353Z,46.32
2023-03-05T05:12:50.774Z,46.42
2023-03-05T05:15:17.510Z,45.91
2023-03-05T05:17:44.321Z,46.45
2023-03-05T05:20:12.801Z,46.57
2023-03-05T05:22:39.315Z,47.32
2023-03-05T05:25:06.106Z,46.47
2023-03-05T05:27:32.506Z,45.83
2023-03-05T05:29:59.187Z,46.29
2023-03-05T05:32:25.780Z,46.70
2023-03-05T05:34:56.638Z,47.27
2023-03-05T05:37:23.550Z,46.63
2023-03-05T05:39:50.864Z,47.13
2023-03-05T05:42:18.259Z,47.01
2023-03-05T05:44:44.740Z,46.98
2023-03-05T05:47:11.717Z,47.05
2023-03-05T05:49:38.452Z,47.00
2023-03-05T05:52:05.395Z,46.86
2023-03-05T05:54:31.817Z,47.23
2023-03-05T05:56:58.204Z,47.50
2023-03-05T05:59:24.850Z,47.32
2023-03-05T06:01:51.363Z,47.33
2023-03-05T06:04:17.841Z,47.54
2023-03-05T06:06:44.140Z,47.05
2023-03-05T06:09:10.767Z,47.56
2023-03-05T06:11:38.333Z,46.87
2023-03-05T06:14:04.981Z,47.26
2023-03-05T06:16:31.496Z,47.30
2023-03-05T06:18:58.136Z,47.39
2023-03-05T06:21:24.770Z,47.46
2023-03-05T06:23:51.704Z,47.46
2023-03-05T06:26:20.169Z,48.05
2023-03-05T06:28:46.540Z,48.17
2023-03-05T06:31:16.758Z,47.53
2023-03-05T06:33:44.101Z,47.44
2023-03-05T06:36:13.878Z,47.54
2023-03-05T06:38:40.778Z,47.50
2023-03-05T06:41:11.362Z,47.42
2023-03-05T06:43:40.717Z,47.71
2023-03-05T06:46:20.892Z,47.89
2023-03-05T06:48:48.549Z,47.64
2023-03-05T06:51:19.591Z,47.61
2023-03-05T06:53:49.302Z,47.45
2023-03-05T06:56:16.918Z,47.72
2023-03-05T06:58:45.727Z,47.52
2023-03-05T07:01:12.499Z,47.92
2023-03-05T07:03:40.583Z,47.95
2023-03-05T07:06:09.410Z,47.75
2023-03-05T07:08:37.308Z,47.57
2023-03-05T07:11:04.982Z,47.41
2023-03-05T07:13:31.302Z,47.98
2023-03-05T07:15:57.892Z,47.67
2023-03-05T07:18:24.518Z,47.72
2023-03-05T07:20:50.875Z,48.23
2023-03-05T07:23:17.417Z,47.71
2023-03-05T07:25:43.773Z,47.96
2023-03-05T07:28:10.753Z,48.25
2023-03-05T07:30:37.167Z,48.04
2023-03-05T07:33:03.548Z,47.60
2023-03-05T07:35:29.868Z,47.87
2023-03-05T07:37:56.260Z,47.83
2023-03-05T07:40:22.755Z,47.56
2023-03-05T07:42:49.384Z,47.40
2023-03-05T07:45:16.028Z,47.36
2023-03-05T07:47:42.384Z,47.42
2023-03-05T07:50:09.391Z,48.02
2023-03-05T07:52:35.747Z,47.77
2023-03-05T07:55:02.147Z,47.87
2023-03-05T07:57:28.791Z,47.90
2023-03-05T07:59:55.187Z,47.88
2023-03-05T08:02:21.802Z,47.70
2023-03-05T08:04:48.398Z,47.84
2023-03-05T08:07:16.411Z,48.26
2023-03-05T08:09:42.922Z,48.28
2023-03-05T08:12:10.623Z,48.00
2023-03-05T08:14:37.635Z,48.21
2023-03-05T08:17:05.612Z,48.27
2023-03-05T08:19:32.981Z,48.15
2023-03-05T08:21:59.909Z,48.41
2023-03-05T08:24:29.644Z,48.59
2023-03-05T08:26:57.438Z,48.29
2023-03-05T08:29:24.567Z,48.65
2023-03-05T08:31:51.446Z,48.14
2023-03-05T08:34:17.863Z,48.17
2023-03-05T08:36:44.199Z,48.19
2023-03-05T08:39:10.555Z,48.37
2023-03-05T08:41:36.976Z,48.03
2023-03-05T08:44:03.857Z,48.67
2023-03-05T08:46:30.715Z,48.59
2023-03-05T08:48:57.087Z,47.88
2023-03-05T08:51:25.992Z,48.12
2023-03-05T08:53:54.314Z,48.22
2023-03-05T08:56:23.626Z,47.60
2023-03-05T08:58:51.613Z,47.58
2023-03-05T09:01:18.177Z,47.99
2023-03-05T09:03:44.555Z,47.74
2023-03-05T09:06:12.570Z,47.70
2023-03-05T09:08:39.704Z,48.04
2023-03-05T09:11:08.714Z,48.16
2023-03-05T09:13:35.818Z,47.77
2023-03-05T09:16:05.716Z,47.85
2023-03-05T09:18:33.502Z,47.69
2023-03-05T09:21:04.853Z,47.92
2023-03-05T09:23:31.424Z,47.57
2023-03-05T09:25:59.044Z,47.77
2023-03-05T09:28:25.395Z,47.96
2023-03-05T09:30:51.714Z,48.19
2023-03-05T09:33:18.298Z,48.19
2023-03-05T09:35:44.750Z,47.96
2023-03-05T09:38:13.362Z,47.70
2023-03-05T09:40:52.512Z,47.76
2023-03-05T09:43:55.203Z,47.83
2023-03-05T09:46:58.250Z,47.66
2023-03-05T09:49:51.002Z,47.16
2023-03-05T09:52:30.951Z,47.72
2023-03-05T09:54:57.927Z,47.18
2023-03-05T09:57:32.440Z,47.43
2023-03-05T10:00:33.732Z,47.19
2023-03-05T10:03:05.107Z,46.54
2023-03-05T10:05:48.079Z,46.26
2023-03-05T10:08:18.961Z,46.51
2023-03-05T10:10:50.358Z,46.64
2023-03-05T10:13:24.571Z,46.57
2023-03-05T10:16:32.123Z,46.29
2023-03-05T10:19:18.636Z,46.31
2023-03-05T10:22:11.543Z,45.77
2023-03-05T10:24:45.978Z,46.47
2023-03-05T10:27:20.322Z,46.65
2023-03-05T10:30:06.145Z,46.42
2023-03-05T10:32:40.100Z,46.04
2023-03-05T10:35:18.348Z,46.55
2023-03-05T10:38:00.779Z,46.46
2023-03-05T10:40:40.838Z,46.15
2023-03-05T10:43:13.048Z,45.87
2023-03-05T10:45:43.249Z,46.22
2023-03-05T10:48:40.613Z,46.22
2023-03-05T10:51:27.897Z,46.36
2023-03-05T10:54:29.950Z,45.44
2023-03-05T10:57:23.164Z,45.27
2023-03-05T10:59:54.361Z,45.10
2023-03-05T11:02:22.681Z,45.36
2023-03-05T11:04:50.075Z,45.37
2023-03-05T11:07:16.431Z,44.94
2023-03-05T11:10:04.386Z,45.02
2023-03-05T11:12:37.104Z,44.74
2023-03-05T11:15:09.480Z,44.12
2023-03-05T11:17:44.959Z,44.66
2023-03-05T11:20:35.272Z,44.32
2023-03-05T11:23:17.946Z,44.68
2023-03-05T11:26:10.417Z,44.52
2023-03-05T11:28:55.011Z,44.69
2023-03-05T11:31:24.726Z,44.62
2023-03-05T11:33:56.742Z,44.11
2023-03-05T11:36:31.719Z,44.22
2023-03-05T11:39:05.950Z,44.74
2023-03-05T11:41:35.708Z,43.55
2023-03-05T11:44:07.145Z,44.40
2023-03-05T11:46:41.818Z,44.02
2023-03-05T11:49:11.529Z,44.65
2023-03-05T11:51:38.000Z,43.78
2023-03-05T11:54:09.024Z,43.94
2023-03-05T11:56:37.166Z,43.48
2023-03-05T11:59:12.346Z,43.98
2023-03-05T12:01:45.714Z,44.12
2023-03-05T12:04:12.186Z,43.83
2023-03-05T12:06:47.144Z,43.88
2023-03-05T12:09:23.547Z,43.77
2023-03-05T12:11:55.856Z,43.72
2023-03-05T12:14:35.045Z,42.79
2023-03-05T12:17:16.850Z,42.81
2023-03-05T12:19:55.518Z,42.79
2023-03-05T12:22:31.940Z,42.37
2023-03-05T12:25:24.379Z,43.44
2023-03-05T12:27:51.055Z,43.38
2023-03-05T12:30:35.912Z,42.82
2023-03-05T12:33:26.201Z,42.83
2023-03-05T12:35:52.564Z,42.94
2023-03-05T12:38:41.558Z,41.70
2023-03-05T12:41:32.902Z,41.97
2023-03-05T12:44:05.531Z,41.27
2023-03-05T12:46:35.687Z,41.90
2023-03-05T12:49:20.472Z,40.99
2023-03-05T12:51:49.102Z,41.88
2023-03-05T12:54:32.478Z,41.98
2023-03-05T12:57:02.712Z,41.82
2023-03-05T12:59:39.322Z,41.22
2023-03-05T13:02:34.566Z,41.45
2023-03-05T13:05:07.494Z,41.71
2023-03-05T13:07:34.229Z,42.14
2023-03-05T13:10:00.689Z,42.25
2023-03-05T13:12:30.352Z,42.13
2023-03-05T13:15:04.875Z,41.14
2023-03-05T13:17:38.490Z,41.03
2023-03-05T13:20:38.304Z,40.96
2023-03-05T13:23:08.977Z,40.88
2023-03-05T13:25:35.271Z,41.35
2023-03-05T13:28:11.349Z,40.41
2023-03-05T13:30:38.156Z,40.34
2023-03-05T13:33:05.775Z,40.13
2023-03-05T13:35:33.985Z,40.83
2023-03-05T13:38:02.220Z,40.07
2023-03-05T13:40:31.781Z,39.73
2023-03-05T13:43:12.460Z,38.92
2023-03-05T13:45:40.269Z,39.86
2023-03-05T13:48:07.286Z,40.27
2023-03-05T13:50:38.099Z,39.02
2023-03-05T13:53:15.843Z,38.77
2023-03-05T13:55:42.569Z,40.59
2023-03-05T13:58:48.374Z,39.20
2023-03-05T14:01:21.958Z,38.79
2023-03-05T14:03:53.786Z,39.24
2023-03-05T14:06:22.668Z,39.57
2023-03-05T14:08:55.013Z,39.71
2023-03-05T14:11:21.504Z,40.19
2023-03-05T14:13:49.089Z,40.33
2023-03-05T14:16:41.848Z,39.51
2023-03-05T14:19:31.842Z,38.89
2023-03-05T14:21:58.199Z,39.94
2023-03-05T14:24:28.622Z,39.72
2023-03-05T14:27:05.707Z,39.23
2023-03-05T14:29:32.854Z,39.61
2023-03-05T14:32:04.196Z,39.30
2023-03-05T14:34:31.979Z,40.24
2023-03-05T14:37:04.661Z,39.25
2023-03-05T14:39:50.613Z,37.93
2023-03-05T14:42:32.138Z,38.31
2023-03-05T14:45:02.141Z,39.38
2023-03-05T14:47:28.998Z,39.53
2023-03-05T14:49:55.483Z,39.00
2023-03-05T14:52:23.906Z,38.54
2023-03-05T14:54:50.917Z,38.65
2023-03-05T14:57:21.161Z,38.10
2023-03-05T14:59:47.617Z,38.75
2023-03-05T15:02:19.426Z,37.89
2023-03-05T15:04:46.568Z,37.70
2023-03-05T15:07:23.101Z,37.22
2023-03-05T15:09:49.481Z,38.65
2023-03-05T15:12:16.470Z,38.44
2023-03-05T15:14:43.689Z,38.36
2023-03-05T15:17:18.649Z,37.49
2023-03-05T15:19:47.106Z,38.42
2023-03-05T15:22:14.260Z,38.37
2023-03-05T15:24:40.656Z,38.46
2023-03-05T15:27:07.095Z,38.01
2023-03-05T15:29:33.985Z,38.56
2023-03-05T15:32:01.949Z,38.59
2023-03-05T15:34:29.378Z,38.37
2023-03-05T15:36:56.099Z,38.24
2023-03-05T15:39:26.454Z,38.33
2023-03-05T15:41:53.282Z,38.10
2023-03-05T15:44:21.006Z,38.62
2023-03-05T15:46:47.484Z,38.08
2023-03-05T15:49:14.646Z,38.04
2023-03-05T15:51:41.278Z,38.02
2023-03-05T15:54:07.681Z,38.39
2023-03-05T15:56:34.162Z,37.87
2023-03-05T15:59:01.235Z,37.82
2023-03-05T16:01:27.968Z,38.38
2023-03-05T16:03:54.490Z,38.55
2023-03-05T16:06:23.842Z,38.40
2023-03-05T16:08:54.999Z,38.31
2023-03-05T16:11:21.953Z,38.46
2023-03-05T16:13:50.515Z,37.86
2023-03-05T16:16:17.881Z,38.05
2023-03-05T16:18:45.943Z,38.75
2023-03-05T16:21:13.751Z,38.00
2023-03-05T16:23:40.267Z,38.27
2023-03-05T16:26:08.353Z,37.54
2023-03-05T16:28:34.750Z,38.02
2023-03-05T16:31:01.816Z,38.55
2023-03-05T16:33:28.214Z,38.23
2023-03-05T16:36:20.711Z,38.43
2023-03-05T16:38:51.812Z,38.91
2023-03-05T16:41:22.005Z,38.82
2023-03-05T16:43:50.599Z,38.76
2023-03-05T16:46:17.266Z,39.58
2023-03-05T16:48:44.348Z,39.46
2023-03-05T16:51:11.982Z,38.95
2023-03-05T16:53:39.326Z,39.22
2023-03-05T16:56:08.173Z,39.18
2023-03-05T16:58:35.942Z,38.96
2023-03-05T17:01:03.420Z,38.78
2023-03-05T17:03:30.189Z,39.20
2023-03-05T17:05:56.587Z,39.02
2023-03-05T17:08:24.369Z,39.08
2023-03-05T17:10:51.280Z,39.65
2023-03-05T17:13:18.018Z,39.35
2023-03-05T17:15:44.419Z,39.18
2023-03-05T17:18:11.137Z,39.03
2023-03-05T17:20:37.461Z,39.45
2023-03-05T17:23:04.151Z,39.44
2023-03-05T17:25:30.783Z,39.75
2023-03-05T17:27:57.172Z,39.13
2023-03-05T17:30:23.727Z,39.56
2023-03-05T17:32:53.934Z,39.50
2023-03-05T17:35:22.101Z,39.90
2023-03-05T17:37:49.085Z,39.85
2023-03-05T17:40:16.452Z,39.07
2023-03-05T17:42:43.067Z,39.13
2023-03-05T17:45:10.103Z,39.56
2023-03-05T17:47:36.931Z,39.83
2023-03-05T17:50:04.201Z,40.18
2023-03-05T17:52:31.276Z,39.29
2023-03-05T17:54:58.435Z,39.59
2023-03-05T17:57:26.050Z,39.78
2023-03-05T17:59:52.668Z,39.67
2023-03-05T18:02:19.239Z,40.20
2023-03-05T18:04:47.786Z,40.38
2023-03-05T18:07:14.174Z,40.18
2023-03-05T18:09:40.759Z,39.83
2023-03-05T18:12:07.115Z,39.59
2023-03-05T18:14:33.679Z,40.25
2023-03-05T18:17:00.234Z,39.93
2023-03-05T18:19:26.813Z,39.97
2023-03-05T18:21:53.484Z,40.32
2023-03-05T18:24:19.984Z,40.33
2023-03-05T18:26:46.575Z,40.59
2023-03-05T18:29:13.201Z,40.70
2023-03-05T18:31:39.595Z,40.19
2023-03-05T18:34:05.986Z,40.13
2023-03-05T18:36:33.011Z,40.30
2023-03-05T18:38:59.610Z,40.97
2023-03-05T18:41:28.097Z,40.92
2023-03-05T18:43:55.295Z,40.81
2023-03-05T18:46:21.754Z,40.30
2023-03-05T18:48:48.411Z,40.73
2023-03-05T18:51:19.701Z,40.86
2023-03-05T18:53:46.211Z,41.32
2023-03-05T18:56:14.198Z,40.84
2023-03-05T18:58:40.801Z,41.29
2023-03-05T19:01:08.419Z,41.00
2023-03-05T19:03:35.648Z,40.90
2023-03-05T19:06:05.282Z,41.43
2023-03-05T19:08:31.662Z,40.96
2023-03-05T19:10:58.086Z,41.54
2023-03-05T19:13:34.642Z,41.75
2023-03-05T19:16:11.924Z,41.64
2023-03-05T19:18:44.094Z,41.32
2023-03-05T19:21:10.683Z,41.62
2023-03-05T19:23:37.126Z,41.18
2023-03-05T19:26:04.023Z,41.82
2023-03-05T19:28:30.391Z,41.57
2023-03-05T19:30:56.856Z,41.57
2023-03-05T19:33:25.050Z,41.89
2023-03-05T19:35:51.612Z,41.89
2023-03-05T19:38:17.997Z,41.66
2023-03-05T19:40:44.460Z,41.37
2023-03-05T19:43:11.052Z,42.28
2023-03-05T19:45:37.449Z,41.87
2023-03-05T19:48:04.187Z,41.83
2023-03-05T19:50:32.277Z,42.55
2023-03-05T19:52:59.791Z,41.86
2023-03-05T19:55:26.351Z,42.18
2023-03-05T19:57:52.723Z,42.33
2023-03-05T20:00:19.704Z,42.55
2023-03-05T20:02:46.108Z,42.55
2023-03-05T20:05:12.696Z,42.43
2023-03-05T20:07:39.057Z,42.44
2023-03-05T20:10:05.970Z,42.48
2023-03-05T20:12:33.554Z,42.27
2023-03-05T20:15:00.134Z,42.44
2023-03-05T20:17:26.766Z,42.39
2023-03-05T20:19:55.302Z,42.81
2023-03-05T20:22:21.773Z,42.91
2023-03-05T20:24:48.136Z,42.33
2023-03-05T20:27:14.452Z,42.42
2023-03-05T20:29:40.893Z,42.28
2023-03-05T20:32:07.256Z,42.46
2023-03-05T20:34:33.830Z,42.22
2023-03-05T20:37:00.521Z,42.40
2023-03-05T20:39:26.850Z,42.57
2023-03-05T20:41:53.268Z,42.83
2023-03-05T20:44:19.634Z,43.02
2023-03-05T20:46:59.464Z,42.85
2023-03-05T20:49:26.093Z,42.80
2023-03-05T20:51:52.399Z,42.83
2023-03-05T20:54:19.434Z,42.94
2023-03-05T20:56:46.255Z,42.96
2023-03-05T20:59:13.070Z,43.10
2023-03-05T21:01:40.579Z,43.03
2023-03-05T21:04:08.020Z,43.07
2023-03-05T21:06:35.050Z,43.20
2023-03-05T21:09:02.420Z,43.24
2023-03-05T21:11:28.982Z,43.16
2023-03-05T21:13:55.482Z,43.31
2023-03-05T21:16:25.215Z,43.60
2023-03-05T21:18:52.044Z,43.41
2023-03-05T21:21:20.546Z,43.44
2023-03-05T21:23:47.109Z,43.82
2023-03-05T21:26:13.961Z,43.15
2023-03-05T21:28:41.228Z,43.34
2023-03-05T21:31:16.789Z,43.94
2023-03-05T21:33:43.506Z,43.43
2023-03-05T21:36:10.146Z,43.25
2023-03-05T21:38:36.892Z,43.59
2023-03-05T21:41:03.851Z,43.65
2023-03-05T21:43:31.411Z,43.78
2023-03-05T21:45:59.673Z,43.68
2023-03-05T21:48:26.177Z,43.56
2023-03-05T21:50:53.001Z,43.76
2023-03-05T21:53:19.820Z,43.54
2023-03-05T21:56:04.169Z,43.73
2023-03-05T21:58:34.485Z,44.04
2023-03-05T22:01:01.392Z,43.84
2023-03-05T22:03:29.164Z,44.25
2023-03-05T22:05:56.456Z,43.54
2023-03-05T22:08:23.776Z,43.78
2023-03-05T22:10:50.513Z,43.93
2023-03-05T22:13:17.913Z,43.95
2023-03-05T22:15:52.723Z,44.21
2023-03-05T22:18:25.352Z,43.84
2023-03-05T22:20:52.623Z,43.88
2023-03-05T22:23:22.059Z,44.05
2023-03-05T22:25:58.900Z,44.50
2023-03-05T22:28:26.133Z,43.85
2023-03-05T22:30:52.776Z,43.80
2023-03-05T22:33:21.904Z,44.12
2023-03-05T22:35:49.338Z,44.09
2023-03-05T22:38:15.963Z,44.65
2023-03-05T22:40:44.633Z,44.21
2023-03-05T22:43:12.231Z,44.30
2023-03-05T22:45:38.646Z,44.25
2023-03-05T22:48:05.514Z,44.30
2023-03-05T22:50:31.836Z,44.27
2023-03-05T22:52:58.250Z,44.32
2023-03-05T22:55:24.678Z,44.42
2023-03-05T22:57:51.323Z,44.27
2023-03-05T23:00:21.615Z,44.47
2023-03-05T23:02:48.121Z,44.63
2023-03-05T23:05:14.970Z,44.66
2023-03-05T23:07:42.749Z,44.70
2023-03-05T23:10:16.184Z,44.48
2023-03-05T23:12:46.185Z,44.60
2023-03-05T23:15:15.997Z,44.72
2023-03-05T23:17:42.813Z,44.57
2023-03-05T23:20:11.502Z,44.57
2023-03-05T23:22:39.371Z,44.66
2023-03-05T23:25:07.096Z,44.81
2023-03-05T23:27:33.531Z,45.06
2023-03-05T23:30:25.580Z,44.82
2023-03-05T23:33:01.960Z,45.44
2023-03-05T23:35:31.142Z,44.78
2023-03-05T23:38:00.136Z,45.00
2023-03-05T23:40:30.248Z,44.99
2023-03-05T23:42:56.878Z,44.84
2023-03-05T23:45:23.632Z,44.85
2023-03-05T23:47:51.617Z,44.83
2023-03-05T23:50:26.763Z,45.34
2023-03-05T23:52:54.338Z,44.93
2023-03-05T23:55:24.435Z,45.32
2023-03-05T23:57:52.225Z,45.07
